createdAt,value
2023-04-25T00:00:33.166Z,0.00
2023-04-25T00:01:33.144Z,0.00
2023-04-25T00:02:33.302Z,0.00
2023-04-25T00:03:33.325Z,0.00
2023-04-25T00:04:33.414Z,0.00
2023-04-25T00:05:33.194Z,0.00
2023-04-25T00:06:33.146Z,0.00
2023-04-25T00:07:33.126Z,0.00
2023-04-25T00:08:33.114Z,0.00
2023-04-25T00:09:33.134Z,0.00
2023-04-25T00:10:33.129Z,0.00
2023-04-25T00:11:33.114Z,0.00
2023-04-25T00:12:33.113Z,0.00
2023-04-25T00:13:33.096Z,0.00
2023-04-25T00:14:33.092Z,0.00
2023-04-25T00:15:34.510Z,0.00
2023-04-25T00:16:33.222Z,0.00
2023-04-25T00:17:33.118Z,0.00
2023-04-25T00:18:33.093Z,0.00
2023-04-25T00:19:33.306Z,0.00
2023-04-25T00:20:33.066Z,0.00
2023-04-25T00:21:33.072Z,0.00
2023-04-25T00:22:33.092Z,0.00
2023-04-25T00:23:33.064Z,0.00
2023-04-25T00:24:33.077Z,0.00
2023-04-25T00:25:33.041Z,0.00
2023-04-25T00:26:33.261Z,0.00
2023-04-25T00:27:33.053Z,0.00
2023-04-25T00:28:33.048Z,0.00
2023-04-25T00:29:33.041Z,0.00
2023-04-25T00:30:33.034Z,0.00
2023-04-25T00:31:33.091Z,0.00
2023-04-25T00:32:33.073Z,0.00
2023-04-25T00:33:33.017Z,0.00
2023-04-25T00:34:33.029Z,0.00
2023-04-25T00:35:33.018Z,0.00
2023-04-25T00:36:33.003Z,0.00
2023-04-25T00:37:33.041Z,0.00
2023-04-25T00:38:33.019Z,0.00
2023-04-25T00:39:32.982Z,0.00
2023-04-25T00:40:33.031Z,0.00
2023-04-25T00:41:33.007Z,0.00
2023-04-25T00:42:33.013Z,0.00
2023-04-25T00:43:33.193Z,0.00
2023-04-25T00:44:32.981Z,0.00
2023-04-25T00:45:33.226Z,0.00
2023-04-25T00:46:33.014Z,0.00
2023-04-25T00:47:32.998Z,0.00
2023-04-25T00:48:32.985Z,0.00
2023-04-25T00:49:33.198Z,0.00
2023-04-25T00:50:32.958Z,0.00
2023-04-25T00:51:32.961Z,0.00
2023-04-25T00:52:32.972Z,0.00
2023-04-25T00:53:32.956Z,0.00
2023-04-25T00:54:32.952Z,0.00
2023-04-25T00:55:32.955Z,0.00
2023-04-25T00:56:32.945Z,0.00
2023-04-25T00:57:32.939Z,0.00
2023-04-25T00:58:32.936Z,0.00
2023-04-25T00:59:33.149Z,0.00
2023-04-25T01:00:32.991Z,0.00
2023-04-25T01:01:33.273Z,0.00
2023-04-25T01:02:33.010Z,0.00
2023-04-25T01:03:33.044Z,0.00
2023-04-25T01:04:32.956Z,0.00
2023-04-25T01:05:32.908Z,0.00
2023-04-25T01:06:32.897Z,0.00
2023-04-25T01:07:32.889Z,0.00
2023-04-25T01:08:32.899Z,0.00
2023-04-25T01:09:32.894Z,0.00
2023-04-25T01:10:32.892Z,0.00
2023-04-25T01:11:32.878Z,0.00
2023-04-25T01:12:32.891Z,0.00
2023-04-25T01:13:32.891Z,0.00
2023-04-25T01:14:32.853Z,0.00
2023-04-25T01:15:32.860Z,0.00
2023-04-25T01:16:32.903Z,0.00
2023-04-25T01:17:32.920Z,0.00
2023-04-25T01:18:32.864Z,0.00
2023-04-25T01:19:32.842Z,0.00
2023-04-25T01:20:32.898Z,0.00
2023-04-25T01:21:32.835Z,0.00
2023-04-25T01:22:32.854Z,0.00
2023-04-25T01:23:32.843Z,0.00
2023-04-25T01:24:32.833Z,0.00
2023-04-25T01:25:32.852Z,0.00
2023-04-25T01:26:32.822Z,0.00
2023-04-25T01:27:32.828Z,0.00
2023-04-25T01:28:32.828Z,0.00
2023-04-25T01:29:32.815Z,0.00
2023-04-25T01:30:32.809Z,0.00
2023-04-25T01:31:32.807Z,0.00
2023-04-25T01:32:32.824Z,0.00
2023-04-25T01:33:32.812Z,0.00
2023-04-25T01:34:32.798Z,0.00
2023-04-25T01:35:32.787Z,0.00
2023-04-25T01:36:32.787Z,0.00
2023-04-25T01:37:35.407Z,0.00
2023-04-25T01:38:32.790Z,0.00
2023-04-25T01:39:35.411Z,0.00
2023-04-25T01:40:32.774Z,0.00
2023-04-25T01:41:32.790Z,0.00
2023-04-25T01:42:32.770Z,0.00
2023-04-25T01:43:32.741Z,0.00
2023-04-25T01:44:32.749Z,0.00
2023-04-25T01:45:32.735Z,0.00
2023-04-25T01:46:32.793Z,0.00
2023-04-25T01:47:33.225Z,0.00
2023-04-25T01:48:32.746Z,0.00
2023-04-25T01:49:32.738Z,0.00
2023-04-25T01:50:32.723Z,0.00
2023-04-25T01:51:32.731Z,0.00
2023-04-25T01:52:32.735Z,0.00
2023-04-25T01:53:32.731Z,0.00
2023-04-25T01:54:32.737Z,0.00
2023-04-25T01:55:32.722Z,0.00
2023-04-25T01:57:15.209Z,0.00
2023-04-25T01:58:15.186Z,0.00
2023-04-25T01:59:15.172Z,0.00
2023-04-25T02:00:15.173Z,0.00
2023-04-25T02:01:15.205Z,0.00
2023-04-25T02:02:15.210Z,0.00
2023-04-25T02:03:15.345Z,0.00
2023-04-25T02:04:15.329Z,0.00
2023-04-25T02:05:15.148Z,0.00
2023-04-25T02:06:15.269Z,0.00
2023-04-25T02:07:18.572Z,0.00
2023-04-25T02:09:01.775Z,0.00
2023-04-25T02:10:01.774Z,0.00
2023-04-25T02:11:01.748Z,0.00
2023-04-25T02:12:01.755Z,0.00
2023-04-25T02:13:01.782Z,0.00
2023-04-25T02:14:01.765Z,0.00
2023-04-25T02:15:01.752Z,0.00
2023-04-25T02:16:01.918Z,0.00
2023-04-25T02:17:02.053Z,0.00
2023-04-25T02:18:01.822Z,0.00
2023-04-25T02:19:01.739Z,0.00
2023-04-25T02:20:01.720Z,0.00
2023-04-25T02:21:01.734Z,0.00
2023-04-25T02:22:01.739Z,0.00
2023-04-25T02:23:01.735Z,0.00
2023-04-25T02:24:01.724Z,0.00
2023-04-25T02:25:01.731Z,0.00
2023-04-25T02:26:01.717Z,0.00
2023-04-25T02:27:01.692Z,0.00
2023-04-25T02:28:01.698Z,0.00
2023-04-25T02:29:01.706Z,0.00
2023-04-25T02:30:01.748Z,0.00
2023-04-25T02:31:01.729Z,0.00
2023-04-25T02:32:01.731Z,0.00
2023-04-25T02:33:01.717Z,0.00
2023-04-25T02:34:01.679Z,0.00
2023-04-25T02:35:01.661Z,0.00
2023-04-25T02:36:01.682Z,0.00
2023-04-25T02:37:01.807Z,0.00
2023-04-25T02:38:01.693Z,0.00
2023-04-25T02:39:01.659Z,0.00
2023-04-25T02:40:01.651Z,0.00
2023-04-25T02:41:01.647Z,0.00
2023-04-25T02:42:01.649Z,0.00
2023-04-25T02:43:01.640Z,0.00
2023-04-25T02:44:01.625Z,0.00
2023-04-25T02:45:01.714Z,0.00
2023-04-25T02:46:01.673Z,0.00
2023-04-25T02:47:01.653Z,0.00
2023-04-25T02:48:01.664Z,0.00
2023-04-25T02:49:01.633Z,0.00
2023-04-25T02:50:01.666Z,0.00
2023-04-25T02:51:01.617Z,0.00
2023-04-25T02:52:01.666Z,0.00
2023-04-25T02:53:01.578Z,0.00
2023-04-25T02:54:01.592Z,0.00
2023-04-25T02:55:01.586Z,0.00
2023-04-25T02:56:01.592Z,0.00
2023-04-25T02:57:01.573Z,0.00
2023-04-25T02:58:01.618Z,0.00
2023-04-25T02:59:01.558Z,0.00
2023-04-25T03:00:01.572Z,0.00
2023-04-25T03:01:01.629Z,0.00
2023-04-25T03:02:01.586Z,0.00
2023-04-25T03:03:01.655Z,0.00
2023-04-25T03:04:01.572Z,0.00
2023-04-25T03:05:01.557Z,0.00
2023-04-25T03:06:01.572Z,0.00
2023-04-25T03:07:01.580Z,0.00
2023-04-25T03:08:01.539Z,0.00
2023-04-25T03:09:01.544Z,0.00
2023-04-25T03:10:01.524Z,0.00
2023-04-25T03:11:01.525Z,0.00
2023-04-25T03:12:01.531Z,0.00
2023-04-25T03:13:01.508Z,0.00
2023-04-25T03:14:01.507Z,0.00
2023-04-25T03:15:01.515Z,0.00
2023-04-25T03:16:01.501Z,0.00
2023-04-25T03:17:01.631Z,0.00
2023-04-25T03:18:01.545Z,0.00
2023-04-25T03:19:01.489Z,0.00
2023-04-25T03:20:01.506Z,0.00
2023-04-25T03:21:01.472Z,0.00
2023-04-25T03:22:01.496Z,0.00
2023-04-25T03:23:01.477Z,0.00
2023-04-25T03:24:01.497Z,0.00
2023-04-25T03:25:01.482Z,0.00
2023-04-25T03:26:01.484Z,0.00
2023-04-25T03:27:01.467Z,0.00
2023-04-25T03:28:01.453Z,0.00
2023-04-25T03:29:01.458Z,0.00
2023-04-25T03:30:01.470Z,0.00
2023-04-25T03:31:01.456Z,0.00
2023-04-25T03:32:01.458Z,0.00
2023-04-25T03:33:01.523Z,0.00
2023-04-25T03:34:01.446Z,0.00
2023-04-25T03:35:01.428Z,0.00
2023-04-25T03:36:01.414Z,0.00
2023-04-25T03:37:01.423Z,0.00
2023-04-25T03:38:01.422Z,0.00
2023-04-25T03:39:01.420Z,0.00
2023-04-25T03:40:01.408Z,0.00
2023-04-25T03:41:01.452Z,0.00
2023-04-25T03:42:01.402Z,0.00
2023-04-25T03:43:01.396Z,0.00
2023-04-25T03:44:01.461Z,0.00
2023-04-25T03:45:01.398Z,0.00
2023-04-25T03:46:01.436Z,0.00
2023-04-25T03:47:01.397Z,0.00
2023-04-25T03:48:01.443Z,0.00
2023-04-25T03:49:01.395Z,0.00
2023-04-25T03:50:01.379Z,0.00
2023-04-25T03:51:01.378Z,0.00
2023-04-25T03:52:01.383Z,0.00
2023-04-25T03:53:01.398Z,0.00
2023-04-25T03:54:01.347Z,0.00
2023-04-25T03:55:01.342Z,0.00
2023-04-25T03:56:01.370Z,0.00
2023-04-25T03:57:01.335Z,0.00
2023-04-25T03:58:01.325Z,0.00
2023-04-25T03:59:01.352Z,0.00
2023-04-25T04:00:01.334Z,0.00
2023-04-25T04:01:01.351Z,0.00
2023-04-25T04:02:01.352Z,0.00
2023-04-25T04:03:01.484Z,0.00
2023-04-25T04:04:01.634Z,0.00
2023-04-25T04:05:01.603Z,0.00
2023-04-25T04:06:01.372Z,0.00
2023-04-25T04:07:01.292Z,0.00
2023-04-25T04:08:01.304Z,0.00
2023-04-25T04:09:01.291Z,0.00
2023-04-25T04:10:01.290Z,0.00
2023-04-25T04:11:01.303Z,4.00
2023-04-25T04:12:01.283Z,4.00
2023-04-25T04:13:01.269Z,4.00
2023-04-25T04:14:01.284Z,0.00
2023-04-25T04:15:01.325Z,0.00
2023-04-25T04:16:01.289Z,4.00
2023-04-25T04:17:01.264Z,4.00
2023-04-25T04:18:01.341Z,0.00
2023-04-25T04:19:01.329Z,4.00
2023-04-25T04:20:01.266Z,4.00
2023-04-25T04:21:01.257Z,4.00
2023-04-25T04:22:01.242Z,4.00
2023-04-25T04:23:01.236Z,8.00
2023-04-25T04:24:01.256Z,8.00
2023-04-25T04:25:01.243Z,8.00
2023-04-25T04:26:01.218Z,8.00
2023-04-25T04:27:01.242Z,12.00
2023-04-25T04:28:01.200Z,12.00
2023-04-25T04:29:01.217Z,12.00
2023-04-25T04:30:01.203Z,12.00
2023-04-25T04:31:01.251Z,16.00
2023-04-25T04:32:01.216Z,16.00
2023-04-25T04:33:01.233Z,16.00
2023-04-25T04:34:01.193Z,20.00
2023-04-25T04:35:01.177Z,16.00
2023-04-25T04:36:01.222Z,20.00
2023-04-25T04:37:01.203Z,20.00
2023-04-25T04:38:01.175Z,20.00
2023-04-25T04:39:01.174Z,24.00
2023-04-25T04:40:01.217Z,24.00
2023-04-25T04:41:01.153Z,28.00
2023-04-25T04:42:01.182Z,28.00
2023-04-25T04:43:01.153Z,32.00
2023-04-25T04:44:01.175Z,36.00
2023-04-25T04:45:01.164Z,40.00
2023-04-25T04:46:01.148Z,44.00
2023-04-25T04:47:01.279Z,44.00
2023-04-25T04:48:01.170Z,44.00
2023-04-25T04:49:01.146Z,40.00
2023-04-25T04:50:01.130Z,44.00
2023-04-25T04:51:01.126Z,48.00
2023-04-25T04:52:01.139Z,48.00
2023-04-25T04:53:01.156Z,48.00
2023-04-25T04:54:01.118Z,52.00
2023-04-25T04:55:01.130Z,56.00
2023-04-25T04:56:03.726Z,56.00
2023-04-25T04:57:04.735Z,60.00
2023-04-25T04:58:04.732Z,56.00
2023-04-25T04:59:01.133Z,64.00
2023-04-25T05:00:01.106Z,68.00
2023-04-25T05:01:01.527Z,72.00
2023-04-25T05:02:01.323Z,76.00
2023-04-25T05:03:01.481Z,84.00
2023-04-25T05:04:01.931Z,84.00
2023-04-25T05:05:01.065Z,88.00
2023-04-25T05:06:01.052Z,80.00
2023-04-25T05:07:01.085Z,84.00
2023-04-25T05:08:01.368Z,88.00
2023-04-25T05:09:04.325Z,88.00
2023-04-25T05:10:01.069Z,84.00
2023-04-25T05:11:01.044Z,80.00
2023-04-25T05:12:01.049Z,84.00
2023-04-25T05:13:01.900Z,76.00
2023-04-25T05:14:01.090Z,80.00
2023-04-25T05:15:01.026Z,88.00
2023-04-25T05:16:01.048Z,96.00
2023-04-25T05:17:01.066Z,108.00
2023-04-25T05:18:01.035Z,116.00
2023-04-25T05:19:01.015Z,120.00
2023-04-25T05:20:01.025Z,128.00
2023-04-25T05:21:01.023Z,132.00
2023-04-25T05:22:01.017Z,140.00
2023-04-25T05:23:01.036Z,148.00
2023-04-25T05:24:01.006Z,164.00
2023-04-25T05:25:01.047Z,176.00
2023-04-25T05:26:00.989Z,172.00
2023-04-25T05:27:00.998Z,184.00
2023-04-25T05:28:04.421Z,188.00
2023-04-25T05:29:01.004Z,192.00
2023-04-25T05:30:00.979Z,192.00
2023-04-25T05:31:00.986Z,200.00
2023-04-25T05:32:01.078Z,208.00
2023-04-25T05:33:00.985Z,224.00
2023-04-25T05:34:00.988Z,276.00
2023-04-25T05:35:01.017Z,328.00
2023-04-25T05:36:00.988Z,248.00
2023-04-25T05:37:00.976Z,296.00
2023-04-25T05:38:00.960Z,280.00
2023-04-25T05:39:00.967Z,296.00
2023-04-25T05:40:00.977Z,288.00
2023-04-25T05:41:00.990Z,244.00
2023-04-25T05:42:00.965Z,248.00
2023-04-25T05:43:00.961Z,244.00
2023-04-25T05:44:00.940Z,260.00
2023-04-25T05:45:00.955Z,240.00
2023-04-25T05:46:00.958Z,232.00
2023-04-25T05:47:00.987Z,224.00
2023-04-25T05:48:00.989Z,256.00
2023-04-25T05:49:00.952Z,296.00
2023-04-25T05:50:00.921Z,280.00
2023-04-25T05:51:00.962Z,344.00
2023-04-25T05:52:00.920Z,316.00
2023-04-25T05:53:00.997Z,304.00
2023-04-25T05:54:00.923Z,292.00
2023-04-25T05:55:00.922Z,404.00
2023-04-25T05:56:00.920Z,352.00
2023-04-25T05:57:00.924Z,736.00
2023-04-25T05:58:00.915Z,768.00
2023-04-25T05:59:00.892Z,620.00
2023-04-25T06:00:00.918Z,504.00
2023-04-25T06:01:00.927Z,336.00
2023-04-25T06:02:00.930Z,324.00
2023-04-25T06:03:01.012Z,356.00
2023-04-25T06:04:01.114Z,472.00
2023-04-25T06:05:01.201Z,508.00
2023-04-25T06:06:00.962Z,492.00
2023-04-25T06:07:00.922Z,344.00
2023-04-25T06:08:00.881Z,352.00
2023-04-25T06:09:00.884Z,472.00
2023-04-25T06:10:00.859Z,504.00
2023-04-25T06:11:00.882Z,496.00
2023-04-25T06:12:00.868Z,400.00
2023-04-25T06:13:00.925Z,404.00
2023-04-25T06:14:00.855Z,364.00
2023-04-25T06:15:00.862Z,380.00
2023-04-25T06:16:00.888Z,448.00
2023-04-25T06:17:01.297Z,528.00
2023-04-25T06:18:01.120Z,608.00
2023-04-25T06:19:04.320Z,616.00
2023-04-25T06:22:37.281Z,540.00
2023-04-25T06:23:37.634Z,504.00
2023-04-25T06:26:07.815Z,352.00
2023-04-25T06:27:07.818Z,328.00
2023-04-25T06:28:07.851Z,328.00
2023-04-25T06:29:07.831Z,356.00
2023-04-25T06:30:07.815Z,364.00
2023-04-25T06:31:07.804Z,392.00
2023-04-25T06:32:07.794Z,448.00
2023-04-25T06:33:07.872Z,456.00
2023-04-25T06:34:07.816Z,436.00
2023-04-25T06:35:07.805Z,420.00
2023-04-25T06:36:07.788Z,452.00
2023-04-25T06:37:07.797Z,420.00
2023-04-25T06:38:07.791Z,436.00
2023-04-25T06:39:07.782Z,444.00
2023-04-25T06:40:07.803Z,436.00
2023-04-25T06:41:07.778Z,420.00
2023-04-25T06:42:07.824Z,380.00
2023-04-25T06:43:07.771Z,372.00
2023-04-25T06:44:07.793Z,368.00
2023-04-25T06:45:07.787Z,424.00
2023-04-25T06:46:07.773Z,480.00
2023-04-25T06:47:08.142Z,492.00
2023-04-25T06:48:07.782Z,468.00
2023-04-25T06:49:07.762Z,528.00
2023-04-25T06:50:07.763Z,524.00
2023-04-25T06:51:07.755Z,476.00
2023-04-25T06:52:07.744Z,532.00
2023-04-25T06:53:07.727Z,484.00
2023-04-25T06:54:07.787Z,584.00
2023-04-25T06:55:07.726Z,644.00
2023-04-25T06:56:07.732Z,736.00
2023-04-25T06:57:07.736Z,752.00
2023-04-25T06:58:07.723Z,672.00
2023-04-25T06:59:07.716Z,660.00
2023-04-25T07:00:07.744Z,736.00
2023-04-25T07:01:07.790Z,712.00
2023-04-25T07:02:07.712Z,760.00
2023-04-25T07:03:07.799Z,812.00
2023-04-25T07:04:08.042Z,780.00
2023-04-25T07:05:07.706Z,728.00
2023-04-25T07:06:07.712Z,692.00
2023-04-25T07:07:07.738Z,660.00
2023-04-25T07:08:07.708Z,756.00
2023-04-25T07:09:07.723Z,800.00
2023-04-25T07:10:07.698Z,792.00
2023-04-25T07:11:07.702Z,780.00
2023-04-25T07:12:07.715Z,636.00
2023-04-25T07:13:07.704Z,624.00
2023-04-25T07:14:07.683Z,684.00
2023-04-25T07:15:07.685Z,732.00
2023-04-25T07:16:07.758Z,928.00
2023-04-25T07:17:07.667Z,1036.00
2023-04-25T07:18:07.757Z,844.00
2023-04-25T07:19:07.684Z,788.00
2023-04-25T07:20:07.663Z,600.00
2023-04-25T07:21:07.671Z,544.00
2023-04-25T07:22:07.654Z,464.00
2023-04-25T07:23:07.679Z,464.00
2023-04-25T07:24:07.692Z,628.00
2023-04-25T07:25:07.652Z,1252.00
2023-04-25T07:26:07.653Z,1476.00
2023-04-25T07:27:07.653Z,1472.00
2023-04-25T07:28:07.643Z,1112.00
2023-04-25T07:29:07.650Z,924.00
2023-04-25T07:30:07.656Z,600.00
2023-04-25T07:31:07.627Z,564.00
2023-04-25T07:32:07.782Z,692.00
2023-04-25T07:33:07.739Z,844.00
2023-04-25T07:34:07.672Z,780.00
2023-04-25T07:35:07.617Z,716.00
2023-04-25T07:36:07.633Z,968.00
2023-04-25T07:37:07.641Z,864.00
2023-04-25T07:38:07.606Z,1536.00
2023-04-25T07:39:07.597Z,1900.00
2023-04-25T07:40:07.620Z,2884.00
2023-04-25T07:41:07.625Z,1156.00
2023-04-25T07:42:07.643Z,1984.00
2023-04-25T07:43:07.604Z,856.00
2023-04-25T07:44:07.644Z,1772.00
2023-04-25T07:45:07.579Z,1724.00
2023-04-25T07:46:07.633Z,1752.00
2023-04-25T07:47:07.604Z,1688.00
2023-04-25T07:48:07.633Z,1504.00
2023-04-25T07:49:07.567Z,1868.00
2023-04-25T07:50:07.610Z,1616.00
2023-04-25T07:51:07.572Z,1780.00
2023-04-25T07:52:07.559Z,1756.00
2023-04-25T07:53:07.554Z,2196.00
2023-04-25T07:54:07.555Z,1428.00
2023-04-25T07:55:07.569Z,1472.00
2023-04-25T07:56:07.555Z,3120.00
2023-04-25T07:57:07.561Z,1136.00
2023-04-25T07:58:07.554Z,10072.00
2023-04-25T07:59:07.537Z,4320.00
2023-04-25T08:00:07.573Z,1304.00
2023-04-25T08:01:07.556Z,1156.00
2023-04-25T08:02:07.546Z,1380.00
2023-04-25T08:03:07.780Z,1312.00
2023-04-25T08:04:07.646Z,780.00
2023-04-25T08:05:07.637Z,872.00
2023-04-25T08:06:08.383Z,1188.00
2023-04-25T08:07:07.516Z,1400.00
2023-04-25T08:08:07.521Z,1044.00
2023-04-25T08:09:07.501Z,996.00
2023-04-25T08:10:07.514Z,1072.00
2023-04-25T08:11:07.511Z,1324.00
2023-04-25T08:12:07.502Z,1208.00
2023-04-25T08:13:07.517Z,1216.00
2023-04-25T08:14:07.518Z,1024.00
2023-04-25T08:15:07.494Z,860.00
2023-04-25T08:16:07.542Z,864.00
2023-04-25T08:17:07.488Z,1092.00
2023-04-25T08:18:07.541Z,1164.00
2023-04-25T08:19:07.481Z,844.00
2023-04-25T08:20:07.493Z,780.00
2023-04-25T08:21:07.481Z,756.00
2023-04-25T08:22:07.466Z,720.00
2023-04-25T08:23:07.468Z,756.00
2023-04-25T08:24:07.514Z,820.00
2023-04-25T08:25:07.498Z,1104.00
2023-04-25T08:26:07.465Z,1060.00
2023-04-25T08:27:07.468Z,1100.00
2023-04-25T08:28:07.461Z,1296.00
2023-04-25T08:29:07.469Z,1052.00
2023-04-25T08:30:07.465Z,936.00
2023-04-25T08:31:07.455Z,1228.00
2023-04-25T08:32:07.454Z,1028.00
2023-04-25T08:33:07.514Z,1272.00
2023-04-25T08:34:07.462Z,1272.00
2023-04-25T08:35:07.454Z,1168.00
2023-04-25T08:36:07.462Z,1160.00
2023-04-25T08:37:07.434Z,1068.00
2023-04-25T08:38:07.420Z,1156.00
2023-04-25T08:39:07.413Z,1172.00
2023-04-25T08:40:07.430Z,1136.00
2023-04-25T08:41:07.429Z,1008.00
2023-04-25T08:42:07.422Z,1072.00
2023-04-25T08:43:07.400Z,968.00
2023-04-25T08:44:07.410Z,676.00
2023-04-25T08:45:07.452Z,844.00
2023-04-25T08:46:07.444Z,936.00
2023-04-25T08:47:07.473Z,1000.00
2023-04-25T08:48:07.430Z,1060.00
2023-04-25T08:49:07.388Z,832.00
2023-04-25T08:50:07.398Z,756.00
2023-04-25T08:51:07.392Z,848.00
2023-04-25T08:52:07.430Z,684.00
2023-04-25T08:53:07.384Z,660.00
2023-04-25T08:54:12.827Z,664.00
2023-04-25T08:55:07.368Z,600.00
2023-04-25T08:56:07.379Z,556.00
2023-04-25T08:57:07.366Z,620.00
2023-04-25T08:58:07.348Z,656.00
2023-04-25T08:59:07.377Z,768.00
2023-04-25T09:00:07.350Z,752.00
2023-04-25T09:01:07.369Z,588.00
2023-04-25T09:02:07.406Z,424.00
2023-04-25T09:03:07.554Z,428.00
2023-04-25T09:04:07.437Z,432.00
2023-04-25T09:05:07.348Z,348.00
2023-04-25T09:06:07.340Z,356.00
2023-04-25T09:07:07.363Z,360.00
2023-04-25T09:08:07.395Z,356.00
2023-04-25T09:09:07.473Z,376.00
2023-04-25T09:10:07.324Z,424.00
2023-04-25T09:11:07.307Z,396.00
2023-04-25T09:12:07.327Z,428.00
2023-04-25T09:13:07.382Z,392.00
2023-04-25T09:14:07.308Z,388.00
2023-04-25T09:15:07.326Z,400.00
2023-04-25T09:16:07.344Z,380.00
2023-04-25T09:17:07.310Z,388.00
2023-04-25T09:18:07.357Z,368.00
2023-04-25T09:19:07.295Z,384.00
2023-04-25T09:20:07.300Z,408.00
2023-04-25T09:21:13.033Z,380.00
2023-04-25T09:22:07.281Z,408.00
2023-04-25T09:23:07.284Z,372.00
2023-04-25T09:24:07.307Z,336.00
2023-04-25T09:25:07.279Z,344.00
2023-04-25T09:26:07.274Z,324.00
2023-04-25T09:27:07.301Z,364.00
2023-04-25T09:28:07.262Z,416.00
2023-04-25T09:29:07.281Z,424.00
2023-04-25T09:30:07.277Z,452.00
2023-04-25T09:31:07.254Z,504.00
2023-04-25T09:32:07.340Z,544.00
2023-04-25T09:33:07.273Z,584.00
2023-04-25T09:34:07.268Z,588.00
2023-04-25T09:35:07.253Z,600.00
2023-04-25T09:36:07.240Z,584.00
2023-04-25T09:37:07.222Z,620.00
2023-04-25T09:38:07.235Z,620.00
2023-04-25T09:39:07.225Z,548.00
2023-04-25T09:40:07.259Z,504.00
2023-04-25T09:41:07.243Z,440.00
2023-04-25T09:42:07.225Z,368.00
2023-04-25T09:43:07.217Z,356.00
2023-04-25T09:44:07.270Z,324.00
2023-04-25T09:45:07.215Z,316.00
2023-04-25T09:46:07.250Z,300.00
2023-04-25T09:47:07.211Z,272.00
2023-04-25T09:48:07.276Z,272.00
2023-04-25T09:49:07.236Z,232.00
2023-04-25T09:50:07.208Z,232.00
2023-04-25T09:51:07.220Z,224.00
2023-04-25T09:52:07.219Z,228.00
2023-04-25T09:53:07.200Z,304.00
2023-04-25T09:54:07.188Z,392.00
2023-04-25T09:55:07.196Z,488.00
2023-04-25T09:56:07.214Z,572.00
2023-04-25T09:57:07.185Z,652.00
2023-04-25T09:58:07.175Z,644.00
2023-04-25T09:59:07.195Z,600.00
2023-04-25T10:00:07.170Z,492.00
2023-04-25T10:01:07.343Z,356.00
2023-04-25T10:02:07.169Z,292.00
2023-04-25T10:03:07.339Z,260.00
2023-04-25T10:04:07.294Z,224.00
2023-04-25T10:05:07.214Z,220.00
2023-04-25T10:06:07.144Z,220.00
2023-04-25T10:07:07.154Z,200.00
2023-04-25T10:08:07.134Z,192.00
2023-04-25T10:09:07.150Z,168.00
2023-04-25T10:10:07.216Z,148.00
2023-04-25T10:11:07.152Z,132.00
2023-04-25T10:12:07.155Z,128.00
2023-04-25T10:13:07.136Z,108.00
2023-04-25T10:14:07.132Z,104.00
2023-04-25T10:15:07.136Z,136.00
2023-04-25T10:16:07.149Z,136.00
2023-04-25T10:17:07.137Z,164.00
2023-04-25T10:18:07.132Z,176.00
2023-04-25T10:19:07.129Z,208.00
2023-04-25T10:20:07.122Z,236.00
2023-04-25T10:21:07.104Z,256.00
2023-04-25T10:22:07.104Z,284.00
2023-04-25T10:23:07.109Z,284.00
2023-04-25T10:24:07.168Z,300.00
2023-04-25T10:25:07.113Z,340.00
2023-04-25T10:26:07.074Z,368.00
2023-04-25T10:27:07.078Z,372.00
2023-04-25T10:28:07.117Z,392.00
2023-04-25T10:29:07.071Z,420.00
2023-04-25T10:30:07.104Z,468.00
2023-04-25T10:31:07.165Z,496.00
2023-04-25T10:32:07.116Z,468.00
2023-04-25T10:33:07.064Z,456.00
2023-04-25T10:34:07.063Z,420.00
2023-04-25T10:35:07.055Z,392.00
2023-04-25T10:36:07.064Z,352.00
2023-04-25T10:37:07.056Z,368.00
2023-04-25T10:38:07.054Z,392.00
2023-04-25T10:39:07.046Z,416.00
2023-04-25T10:40:07.025Z,560.00
2023-04-25T10:41:07.041Z,588.00
2023-04-25T10:42:07.027Z,668.00
2023-04-25T10:43:07.031Z,684.00
2023-04-25T10:44:07.033Z,624.00
2023-04-25T10:45:07.056Z,600.00
2023-04-25T10:46:07.051Z,548.00
2023-04-25T10:47:07.085Z,452.00
2023-04-25T10:48:07.117Z,384.00
2023-04-25T10:49:06.999Z,332.00
2023-04-25T10:50:07.060Z,296.00
2023-04-25T10:51:06.997Z,256.00
2023-04-25T10:52:07.005Z,232.00
2023-04-25T10:53:06.999Z,208.00
2023-04-25T10:54:06.984Z,192.00
2023-04-25T10:55:07.013Z,176.00
2023-04-25T10:56:08.227Z,168.00
2023-04-25T10:57:07.005Z,176.00
2023-04-25T10:58:06.978Z,176.00
2023-04-25T10:59:06.972Z,192.00
2023-04-25T11:00:07.006Z,196.00
2023-04-25T11:01:07.055Z,200.00
2023-04-25T11:02:07.052Z,220.00
2023-04-25T11:03:07.260Z,236.00
2023-04-25T11:04:07.244Z,232.00
2023-04-25T11:05:06.975Z,248.00
2023-04-25T11:06:06.953Z,264.00
2023-04-25T11:07:08.045Z,280.00
2023-04-25T11:08:08.393Z,284.00
2023-04-25T11:09:06.929Z,288.00
2023-04-25T11:10:06.964Z,292.00
2023-04-25T11:11:06.940Z,292.00
2023-04-25T11:12:06.932Z,284.00
2023-04-25T11:13:06.962Z,272.00
2023-04-25T11:14:06.908Z,276.00
2023-04-25T11:15:06.941Z,280.00
2023-04-25T11:16:12.561Z,304.00
2023-04-25T11:17:06.963Z,328.00
2023-04-25T11:18:08.998Z,356.00
2023-04-25T11:19:06.894Z,384.00
2023-04-25T11:20:06.894Z,432.00
2023-04-25T11:21:06.896Z,472.00
2023-04-25T11:22:06.909Z,496.00
2023-04-25T11:23:06.923Z,500.00
2023-04-25T11:24:06.911Z,496.00
2023-04-25T11:25:06.897Z,508.00
2023-04-25T11:26:06.895Z,524.00
2023-04-25T11:27:07.275Z,540.00
2023-04-25T11:28:06.906Z,536.00
2023-04-25T11:29:06.867Z,528.00
2023-04-25T11:30:06.860Z,496.00
2023-04-25T11:31:06.899Z,476.00
2023-04-25T11:32:07.082Z,496.00
2023-04-25T11:33:06.911Z,512.00
2023-04-25T11:34:06.873Z,516.00
2023-04-25T11:35:06.939Z,552.00
2023-04-25T11:36:06.849Z,564.00
2023-04-25T11:37:06.875Z,528.00
2023-04-25T11:38:06.845Z,496.00
2023-04-25T11:39:06.875Z,456.00
2023-04-25T11:40:06.848Z,416.00
2023-04-25T11:41:06.847Z,388.00
2023-04-25T11:42:14.018Z,416.00
2023-04-25T11:43:06.829Z,372.00
2023-04-25T11:44:06.832Z,376.00
2023-04-25T11:45:06.822Z,440.00
2023-04-25T11:46:06.857Z,512.00
2023-04-25T11:47:06.813Z,468.00
2023-04-25T11:48:06.876Z,380.00
2023-04-25T11:49:06.817Z,368.00
2023-04-25T11:50:06.798Z,296.00
2023-04-25T11:51:06.801Z,264.00
2023-04-25T11:52:06.815Z,256.00
2023-04-25T11:53:06.809Z,228.00
2023-04-25T11:54:06.815Z,260.00
2023-04-25T11:55:08.046Z,260.00
2023-04-25T11:56:06.797Z,244.00
2023-04-25T11:57:06.777Z,216.00
2023-04-25T11:58:06.799Z,192.00
2023-04-25T11:59:18.172Z,212.00
2023-04-25T12:00:06.771Z,196.00
2023-04-25T12:01:06.836Z,192.00
2023-04-25T12:02:06.788Z,240.00
2023-04-25T12:03:06.872Z,244.00
2023-04-25T12:04:06.967Z,208.00
2023-04-25T12:05:21.660Z,248.00
2023-04-25T12:06:07.089Z,240.00
2023-04-25T12:07:06.756Z,228.00
2023-04-25T12:08:06.740Z,232.00
2023-04-25T12:09:06.748Z,228.00
2023-04-25T12:10:06.753Z,240.00
2023-04-25T12:11:06.730Z,236.00
2023-04-25T12:12:06.935Z,224.00
2023-04-25T12:13:06.751Z,224.00
2023-04-25T12:14:06.725Z,232.00
2023-04-25T12:15:06.712Z,276.00
2023-04-25T12:16:06.794Z,284.00
2023-04-25T12:17:06.718Z,268.00
2023-04-25T12:18:06.762Z,280.00
2023-04-25T12:19:06.721Z,280.00
2023-04-25T12:20:06.718Z,300.00
2023-04-25T12:21:06.702Z,372.00
2023-04-25T12:22:06.702Z,432.00
2023-04-25T12:23:06.706Z,436.00
2023-04-25T12:24:06.694Z,476.00
2023-04-25T12:25:06.700Z,464.00
2023-04-25T12:26:06.740Z,504.00
2023-04-25T12:27:06.694Z,440.00
2023-04-25T12:28:06.697Z,476.00
2023-04-25T12:29:06.676Z,508.00
2023-04-25T12:30:06.673Z,528.00
2023-04-25T12:31:06.714Z,536.00
2023-04-25T12:32:06.666Z,496.00
2023-04-25T12:33:06.700Z,488.00
2023-04-25T12:34:06.657Z,480.00
2023-04-25T12:35:06.664Z,464.00
2023-04-25T12:36:06.726Z,432.00
2023-04-25T12:37:06.653Z,440.00
2023-04-25T12:38:06.643Z,424.00
2023-04-25T12:39:06.670Z,424.00
2023-04-25T12:40:06.635Z,432.00
2023-04-25T12:41:06.637Z,436.00
2023-04-25T12:42:09.315Z,448.00
2023-04-25T12:43:06.636Z,448.00
2023-04-25T12:44:06.660Z,460.00
2023-04-25T12:45:06.619Z,468.00
2023-04-25T12:46:06.623Z,464.00
2023-04-25T12:47:06.711Z,452.00
2023-04-25T12:48:06.669Z,444.00
2023-04-25T12:49:17.569Z,440.00
2023-04-25T12:50:06.591Z,432.00